createdAt,value
2024-03-10T00:02:00.052Z,3.00
2024-03-10T00:04:30.078Z,2.97
2024-03-10T00:06:59.913Z,2.95
2024-03-10T00:09:29.027Z,2.91
2024-03-10T00:11:57.439Z,2.96
2024-03-10T00:14:25.824Z,3.12
2024-03-10T00:16:54.037Z,3.18
2024-03-10T00:19:22.504Z,3.25
2024-03-10T00:21:50.692Z,3.37
2024-03-10T00:24:21.328Z,3.44
2024-03-10T00:26:50.915Z,3.49
2024-03-10T00:29:19.116Z,3.47
2024-03-10T00:31:47.317Z,3.53
2024-03-10T00:34:15.668Z,3.62
2024-03-10T00:36:43.765Z,3.65
2024-03-10T00:39:11.961Z,3.61
2024-03-10T00:41:41.074Z,3.61
2024-03-10T00:44:09.290Z,3.55
2024-03-10T00:46:37.546Z,3.51
2024-03-10T00:49:05.805Z,3.53
2024-03-10T00:51:36.340Z,3.47
2024-03-10T00:54:05.002Z,3.37
2024-03-10T00:56:33.197Z,3.26
2024-03-10T00:59:01.397Z,3.12
2024-03-10T01:01:30.299Z,3.02
2024-03-10T01:03:58.408Z,2.95
2024-03-10T01:06:26.812Z,2.90
2024-03-10T01:08:54.912Z,2.89
2024-03-10T01:11:23.079Z,2.93
2024-03-10T01:13:51.915Z,3.08
2024-03-10T01:16:20.068Z,3.15
2024-03-10T01:18:48.493Z,3.17
2024-03-10T01:21:16.575Z,3.15
2024-03-10T01:23:44.605Z,3.10
2024-03-10T01:26:12.821Z,3.04
2024-03-10T01:28:41.104Z,3.03
2024-03-10T01:31:10.855Z,3.00
2024-03-10T01:33:39.128Z,3.13
2024-03-10T01:36:08.102Z,3.26
2024-03-10T01:38:36.197Z,3.21
2024-03-10T01:41:04.560Z,3.06
2024-03-10T01:43:32.795Z,2.96
2024-03-10T01:46:08.976Z,2.91
2024-03-10T01:48:41.683Z,2.95
2024-03-10T01:51:10.285Z,3.07
2024-03-10T01:53:38.595Z,3.06
2024-03-10T01:56:08.396Z,3.00
2024-03-10T01:58:36.751Z,2.90
2024-03-10T02:01:05.038Z,2.89
2024-03-10T02:03:33.541Z,2.84
2024-03-10T02:06:01.727Z,2.89
2024-03-10T02:08:29.973Z,2.93
2024-03-10T02:10:58.240Z,3.06
2024-03-10T02:13:26.582Z,3.24
2024-03-10T02:16:04.842Z,3.32
2024-03-10T02:18:35.668Z,3.48
2024-03-10T02:21:04.119Z,3.62
2024-03-10T02:23:36.310Z,3.72
2024-03-10T02:26:05.082Z,3.88
2024-03-10T02:28:36.939Z,4.02
2024-03-10T02:31:25.049Z,4.01
2024-03-10T02:34:11.802Z,4.03
2024-03-10T02:36:58.913Z,4.11
2024-03-10T02:39:45.549Z,4.10
2024-03-10T02:42:32.187Z,4.03
2024-03-10T02:45:18.967Z,3.97
2024-03-10T02:47:47.422Z,3.93
2024-03-10T02:50:15.621Z,3.93
2024-03-10T02:52:43.690Z,3.98
2024-03-10T02:55:13.072Z,4.06
2024-03-10T02:57:41.275Z,4.19
2024-03-10T03:00:14.023Z,4.30
2024-03-10T03:02:42.062Z,4.32
2024-03-10T03:05:10.345Z,4.34
2024-03-10T03:07:38.487Z,4.30
2024-03-10T03:10:07.394Z,4.39
2024-03-10T03:12:37.018Z,4.48
2024-03-10T03:15:05.916Z,4.55
2024-03-10T03:17:34.077Z,4.58
2024-03-10T03:20:02.385Z,4.62
2024-03-10T03:22:30.693Z,4.67
2024-03-10T03:24:58.848Z,4.68
2024-03-10T03:27:26.877Z,4.77
2024-03-10T03:29:55.993Z,4.87
2024-03-10T03:32:24.087Z,4.80
2024-03-10T03:34:52.153Z,4.80
2024-03-10T03:37:20.241Z,4.85
2024-03-10T03:39:48.438Z,4.88
2024-03-10T03:42:16.786Z,4.87
2024-03-10T03:44:45.576Z,4.80
2024-03-10T03:47:13.735Z,4.80
2024-03-10T03:49:41.859Z,4.83
2024-03-10T03:52:10.026Z,4.80
2024-03-10T03:54:40.725Z,4.75
2024-03-10T03:57:08.813Z,4.65
2024-03-10T03:59:40.309Z,4.62
2024-03-10T04:02:08.718Z,4.50
2024-03-10T04:04:36.943Z,4.43
2024-03-10T04:07:05.384Z,4.46
2024-03-10T04:09:33.492Z,4.42
2024-03-10T04:12:01.943Z,4.19
2024-03-10T04:14:30.148Z,4.14
2024-03-10T04:16:58.712Z,4.24
2024-03-10T04:19:26.779Z,4.24
2024-03-10T04:21:55.712Z,4.19
2024-03-10T04:24:24.098Z,4.24
2024-03-10T04:26:52.276Z,4.28
2024-03-10T04:29:20.928Z,4.35
2024-03-10T04:31:49.662Z,4.30
2024-03-10T04:34:17.805Z,4.14
2024-03-10T04:36:45.914Z,4.14
2024-03-10T04:39:14.103Z,4.20
2024-03-10T04:41:42.164Z,4.24
2024-03-10T04:44:15.973Z,4.25
2024-03-10T04:46:44.173Z,4.21
2024-03-10T04:49:13.030Z,3.99
2024-03-10T04:51:42.285Z,3.66
2024-03-10T04:54:10.949Z,3.55
2024-03-10T04:56:39.160Z,3.62
2024-03-10T04:59:07.539Z,3.77
2024-03-10T05:01:35.753Z,3.88
2024-03-10T05:04:03.952Z,3.95
2024-03-10T05:06:32.022Z,3.98
2024-03-10T05:09:00.119Z,4.06
2024-03-10T05:11:28.405Z,4.12
2024-03-10T05:13:56.897Z,4.09
2024-03-10T05:16:25.051Z,4.07
2024-03-10T05:18:55.005Z,4.04
2024-03-10T05:21:26.239Z,4.09
2024-03-10T05:23:57.398Z,4.09
2024-03-10T05:26:25.902Z,4.06
2024-03-10T05:28:54.139Z,4.07
2024-03-10T05:31:27.532Z,4.06
2024-03-10T05:33:58.900Z,4.09
2024-03-10T05:36:27.971Z,4.10
2024-03-10T05:38:56.559Z,4.10
2024-03-10T05:41:24.818Z,4.15
2024-03-10T05:43:53.122Z,4.22
2024-03-10T05:46:21.250Z,4.29
2024-03-10T05:48:49.452Z,4.36
2024-03-10T05:51:17.640Z,4.40
2024-03-10T05:53:46.954Z,4.48
2024-03-10T05:56:15.150Z,4.54
2024-03-10T05:58:44.188Z,4.57
2024-03-10T06:01:13.437Z,4.60
2024-03-10T06:03:41.541Z,4.61
2024-03-10T06:06:10.011Z,4.54
2024-03-10T06:08:38.140Z,4.54
2024-03-10T06:11:06.286Z,4.61
2024-03-10T06:13:34.607Z,4.67
2024-03-10T06:16:04.046Z,4.75
2024-03-10T06:18:54.770Z,4.77
2024-03-10T06:21:46.401Z,4.74
2024-03-10T06:24:33.434Z,4.78
2024-03-10T06:27:02.147Z,4.91
2024-03-10T06:29:30.573Z,4.91
2024-03-10T06:32:00.241Z,4.93
2024-03-10T06:34:28.611Z,4.93
2024-03-10T06:36:56.814Z,5.06
2024-03-10T06:39:25.823Z,5.19
2024-03-10T06:41:53.966Z,5.31
2024-03-10T06:44:23.273Z,5.50
2024-03-10T06:46:51.869Z,5.70
2024-03-10T06:49:20.003Z,5.71
2024-03-10T06:51:48.655Z,5.69
2024-03-10T06:54:16.728Z,5.83
2024-03-10T06:56:44.883Z,6.04
2024-03-10T06:59:14.323Z,6.18
2024-03-10T07:01:46.147Z,6.25
2024-03-10T07:04:17.535Z,6.28
2024-03-10T07:06:47.453Z,6.54
2024-03-10T07:09:16.978Z,6.99
2024-03-10T07:11:45.412Z,7.56
2024-03-10T07:14:15.680Z,8.02
2024-03-10T07:16:50.579Z,8.30
2024-03-10T07:19:18.745Z,8.63
2024-03-10T07:21:46.833Z,9.05
2024-03-10T07:24:14.990Z,9.45
2024-03-10T07:26:43.329Z,9.86
2024-03-10T07:29:12.342Z,10.13
2024-03-10T07:31:40.397Z,10.28
2024-03-10T07:34:08.720Z,10.27
2024-03-10T07:36:37.208Z,10.34
2024-03-10T07:39:08.885Z,10.41
2024-03-10T07:41:37.182Z,10.54
2024-03-10T07:44:05.540Z,10.78
2024-03-10T07:46:33.880Z,11.17
2024-03-10T07:49:03.794Z,11.61
2024-03-10T07:51:32.449Z,12.03
2024-03-10T07:54:01.893Z,12.53
2024-03-10T07:56:32.418Z,12.95
2024-03-10T07:59:02.134Z,13.39
2024-03-10T08:01:30.625Z,13.67
2024-03-10T08:03:58.720Z,13.71
2024-03-10T08:06:27.170Z,13.73
2024-03-10T08:08:55.306Z,13.74
2024-03-10T08:11:24.025Z,13.86
2024-03-10T08:13:52.485Z,14.06
2024-03-10T08:16:21.216Z,14.05
2024-03-10T08:18:51.158Z,14.13
2024-03-10T08:21:24.170Z,14.12
2024-03-10T08:23:52.298Z,13.86
2024-03-10T08:26:20.736Z,13.68
2024-03-10T08:28:48.809Z,13.61
2024-03-10T08:31:17.858Z,13.72
2024-03-10T08:33:46.055Z,13.88
2024-03-10T08:36:14.191Z,14.28
2024-03-10T08:38:42.416Z,14.75
2024-03-10T08:41:10.823Z,14.96
2024-03-10T08:43:39.088Z,15.26
2024-03-10T08:46:08.097Z,15.80
2024-03-10T08:48:37.029Z,16.29
2024-03-10T08:51:07.279Z,16.37
2024-03-10T08:53:35.904Z,16.70
2024-03-10T08:56:06.123Z,17.01
2024-03-10T08:58:34.667Z,17.29
2024-03-10T09:01:05.983Z,17.74
2024-03-10T09:03:34.284Z,18.27
2024-03-10T09:06:02.505Z,18.28
2024-03-10T09:08:30.922Z,18.07
2024-03-10T09:11:04.541Z,17.70
2024-03-10T09:13:34.699Z,17.48
2024-03-10T09:16:02.882Z,17.50
2024-03-10T09:18:31.129Z,17.33
2024-03-10T09:20:59.385Z,16.99
2024-03-10T09:23:29.205Z,16.66
2024-03-10T09:25:59.256Z,16.24
2024-03-10T09:28:27.502Z,16.27
2024-03-10T09:30:58.586Z,16.26
2024-03-10T09:33:27.149Z,15.64
2024-03-10T09:35:59.334Z,15.02
2024-03-10T09:38:27.605Z,14.58
2024-03-10T09:40:57.240Z,14.50
2024-03-10T09:43:30.521Z,14.19
2024-03-10T09:45:59.152Z,14.04
2024-03-10T09:48:27.327Z,13.89
2024-03-10T09:50:55.626Z,13.71
2024-03-10T09:53:25.095Z,13.83
2024-03-10T09:55:54.245Z,13.81
2024-03-10T09:58:40.322Z,13.58
2024-03-10T10:01:13.669Z,13.67
2024-03-10T10:03:46.423Z,13.80
2024-03-10T10:06:15.141Z,13.98
2024-03-10T10:08:43.701Z,13.89
2024-03-10T10:11:14.690Z,13.70
2024-03-10T10:13:43.839Z,13.51
2024-03-10T10:16:12.470Z,13.30
2024-03-10T10:18:51.144Z,12.96
2024-03-10T10:21:28.317Z,12.73
2024-03-10T10:23:59.064Z,12.85
2024-03-10T10:26:27.104Z,12.90
2024-03-10T10:29:11.098Z,12.95
2024-03-10T10:31:39.864Z,13.12
2024-03-10T10:34:08.555Z,13.10
2024-03-10T10:36:36.908Z,13.19
2024-03-10T10:39:10.224Z,13.42
2024-03-10T10:41:39.462Z,13.68
2024-03-10T10:44:08.565Z,13.78
2024-03-10T10:46:37.815Z,13.92
2024-03-10T10:49:06.325Z,14.14
2024-03-10T10:51:37.407Z,14.39
2024-03-10T10:54:10.720Z,14.71
2024-03-10T10:56:39.728Z,14.91
2024-03-10T10:59:12.035Z,15.02
2024-03-10T11:01:41.805Z,15.46
2024-03-10T11:04:13.428Z,16.18
2024-03-10T11:06:42.477Z,16.46
2024-03-10T11:09:16.251Z,16.27
2024-03-10T11:11:46.761Z,16.17
2024-03-10T11:14:17.517Z,16.31
2024-03-10T11:16:46.046Z,16.46
2024-03-10T11:19:22.485Z,16.98
2024-03-10T11:21:51.634Z,17.70
2024-03-10T11:24:23.302Z,17.71
2024-03-10T11:27:13.162Z,17.58
2024-03-10T11:29:43.077Z,17.53
2024-03-10T11:32:33.076Z,17.55
2024-03-10T11:35:08.525Z,17.68
2024-03-10T11:37:38.137Z,17.78
2024-03-10T11:40:16.896Z,17.92
2024-03-10T11:42:46.523Z,18.17
2024-03-10T11:45:14.812Z,19.07
2024-03-10T11:47:45.500Z,19.94
2024-03-10T11:50:13.813Z,19.99
2024-03-10T11:52:41.883Z,18.78
2024-03-10T11:55:14.788Z,17.84
2024-03-10T11:57:42.963Z,17.39
2024-03-10T12:00:24.682Z,16.19
2024-03-10T12:02:54.720Z,15.51
2024-03-10T12:05:24.142Z,15.35
2024-03-10T12:07:56.083Z,15.49
2024-03-10T12:10:29.641Z,16.00
2024-03-10T12:12:59.134Z,17.77
2024-03-10T12:15:28.020Z,19.22
2024-03-10T12:17:56.531Z,19.67
2024-03-10T12:20:25.360Z,19.64
2024-03-10T12:22:54.440Z,19.90
2024-03-10T12:25:22.854Z,20.44
2024-03-10T12:27:51.367Z,21.23
2024-03-10T12:30:22.191Z,21.61
2024-03-10T12:32:53.848Z,22.33
2024-03-10T12:35:24.877Z,23.26
2024-03-10T12:37:53.603Z,23.91
2024-03-10T12:40:23.208Z,24.06
2024-03-10T12:42:52.948Z,23.74
2024-03-10T12:45:22.200Z,23.48
2024-03-10T12:47:54.995Z,23.19
2024-03-10T12:50:23.491Z,22.63
2024-03-10T12:52:51.877Z,21.85
2024-03-10T12:55:20.213Z,21.16
2024-03-10T12:57:48.325Z,20.08
2024-03-10T13:00:25.367Z,18.97
2024-03-10T13:02:56.354Z,17.77
2024-03-10T13:05:25.234Z,17.23
2024-03-10T13:07:53.317Z,17.16
2024-03-10T13:10:21.860Z,17.13
2024-03-10T13:12:50.283Z,17.13
2024-03-10T13:15:18.710Z,17.11
2024-03-10T13:17:47.147Z,17.05
2024-03-10T13:20:18.279Z,16.86
2024-03-10T13:22:47.104Z,16.72
2024-03-10T13:25:15.898Z,16.67
2024-03-10T13:27:44.022Z,16.57
2024-03-10T13:30:15.886Z,16.38
2024-03-10T13:32:44.259Z,16.34
2024-03-10T13:35:15.164Z,16.31
2024-03-10T13:37:43.440Z,16.59
2024-03-10T13:40:12.962Z,17.11
2024-03-10T13:42:42.440Z,17.87
2024-03-10T13:45:19.652Z,18.58
2024-03-10T13:47:51.685Z,19.22
2024-03-10T13:50:25.425Z,19.34
2024-03-10T13:52:53.675Z,19.29
2024-03-10T13:55:22.065Z,19.57
2024-03-10T13:57:52.921Z,19.56
2024-03-10T14:00:23.111Z,19.31
2024-03-10T14:02:51.224Z,19.10
2024-03-10T14:05:20.617Z,18.61
2024-03-10T14:07:49.152Z,17.93
2024-03-10T14:10:20.656Z,17.63
2024-03-10T14:12:48.832Z,17.28
2024-03-10T14:15:17.258Z,17.15
2024-03-10T14:17:46.242Z,17.16
2024-03-10T14:20:16.559Z,17.01
2024-03-10T14:22:51.845Z,16.96
2024-03-10T14:25:20.211Z,16.64
2024-03-10T14:27:52.735Z,16.00
2024-03-10T14:30:24.077Z,15.34
2024-03-10T14:32:54.944Z,15.05
2024-03-10T14:35:25.974Z,15.01
2024-03-10T14:37:56.292Z,14.71
2024-03-10T14:40:24.610Z,14.41
2024-03-10T14:42:55.304Z,14.25
2024-03-10T14:45:24.677Z,14.21
2024-03-10T14:47:53.713Z,14.11
2024-03-10T14:50:26.429Z,13.92
2024-03-10T14:52:56.597Z,13.80
2024-03-10T14:55:25.781Z,13.77
2024-03-10T14:57:54.363Z,13.74
2024-03-10T15:00:36.185Z,13.80
2024-03-10T15:03:07.571Z,13.87
2024-03-10T15:05:37.617Z,13.95
2024-03-10T15:08:06.939Z,14.03
2024-03-10T15:10:36.673Z,13.95
2024-03-10T15:13:10.136Z,13.85
2024-03-10T15:15:40.132Z,13.72
2024-03-10T15:18:10.661Z,13.66
2024-03-10T15:20:44.112Z,13.59
2024-03-10T15:23:13.275Z,13.56
2024-03-10T15:25:42.234Z,13.46
2024-03-10T15:28:11.237Z,13.38
2024-03-10T15:30:42.546Z,13.38
2024-03-10T15:33:12.165Z,13.36
2024-03-10T15:35:43.120Z,13.33
2024-03-10T15:38:11.783Z,13.24
2024-03-10T15:40:40.131Z,13.18
2024-03-10T15:43:10.770Z,13.12
2024-03-10T15:45:43.927Z,13.10
2024-03-10T15:48:13.779Z,13.08
2024-03-10T15:50:44.012Z,13.11
2024-03-10T15:53:12.750Z,13.13
2024-03-10T15:55:41.244Z,13.16
2024-03-10T15:58:11.389Z,13.12
2024-03-10T16:00:39.945Z,13.07
2024-03-10T16:03:17.376Z,12.99
2024-03-10T16:05:56.683Z,12.92
2024-03-10T16:08:26.712Z,12.79
2024-03-10T16:10:55.016Z,12.72
2024-03-10T16:13:26.711Z,12.69
2024-03-10T16:15:55.641Z,12.64
2024-03-10T16:18:24.568Z,12.62
2024-03-10T16:20:52.985Z,12.63
2024-03-10T16:23:22.926Z,12.70
2024-03-10T16:25:51.200Z,12.72
2024-03-10T16:28:19.489Z,12.62
2024-03-10T16:30:47.623Z,12.59
2024-03-10T16:33:15.839Z,12.54
2024-03-10T16:35:44.075Z,12.57
2024-03-10T16:38:12.287Z,12.48
2024-03-10T16:40:40.479Z,12.36
2024-03-10T16:43:08.693Z,12.32
2024-03-10T16:45:36.902Z,12.34
2024-03-10T16:48:05.448Z,12.32
2024-03-10T16:50:34.788Z,12.31
2024-03-10T16:53:07.543Z,12.29
2024-03-10T16:55:41.502Z,12.23
2024-03-10T16:58:10.631Z,12.17
2024-03-10T17:00:39.661Z,12.05
2024-03-10T17:03:12.895Z,11.92
2024-03-10T17:05:41.291Z,11.85
2024-03-10T17:08:12.675Z,11.73
2024-03-10T17:10:41.112Z,11.70
2024-03-10T17:13:09.896Z,11.60
2024-03-10T17:15:43.466Z,11.51
2024-03-10T17:18:14.210Z,11.46
2024-03-10T17:20:42.741Z,11.39
2024-03-10T17:23:13.868Z,11.31
2024-03-10T17:25:42.261Z,11.25
2024-03-10T17:28:10.607Z,11.18
2024-03-10T17:30:38.879Z,11.16
2024-03-10T17:33:07.142Z,11.08
2024-03-10T17:35:35.697Z,11.04
2024-03-10T17:38:05.515Z,10.95
2024-03-10T17:40:34.046Z,10.92
2024-03-10T17:43:02.220Z,10.90
2024-03-10T17:45:30.392Z,10.84
2024-03-10T17:48:00.585Z,10.78
2024-03-10T17:50:31.005Z,10.75
2024-03-10T17:52:59.220Z,10.72
2024-03-10T17:55:27.507Z,10.73
2024-03-10T17:57:55.668Z,10.73
2024-03-10T18:00:24.172Z,10.78
2024-03-10T18:02:52.617Z,10.81
2024-03-10T18:05:21.495Z,10.82
2024-03-10T18:07:52.906Z,10.86
2024-03-10T18:10:22.935Z,10.95
2024-03-10T18:12:52.470Z,11.01
2024-03-10T18:15:21.920Z,11.09
2024-03-10T18:17:50.530Z,11.13
2024-03-10T18:20:21.269Z,11.05
2024-03-10T18:22:49.836Z,10.98
2024-03-10T18:25:18.174Z,10.98
2024-03-10T18:27:46.537Z,10.99
2024-03-10T18:30:15.801Z,11.01
2024-03-10T18:32:44.360Z,10.99
2024-03-10T18:35:14.267Z,10.93
2024-03-10T18:37:43.481Z,10.87
2024-03-10T18:40:12.257Z,10.81
2024-03-10T18:42:41.759Z,10.83
2024-03-10T18:45:10.700Z,10.80
2024-03-10T18:47:38.997Z,10.74
2024-03-10T18:50:11.640Z,10.77
2024-03-10T18:52:43.684Z,10.81
2024-03-10T18:55:14.657Z,10.86
2024-03-10T18:57:42.976Z,10.90
2024-03-10T19:00:13.352Z,10.83
2024-03-10T19:02:42.809Z,10.82
2024-03-10T19:05:12.631Z,10.82
2024-03-10T19:07:42.342Z,10.84
2024-03-10T19:10:11.390Z,10.84
2024-03-10T19:12:46.326Z,10.85
2024-03-10T19:15:15.469Z,10.87
2024-03-10T19:17:44.647Z,10.88
2024-03-10T19:20:19.374Z,10.89
2024-03-10T19:22:55.990Z,10.89
2024-03-10T19:25:25.004Z,10.95
2024-03-10T19:27:53.366Z,10.98
2024-03-10T19:30:21.670Z,11.00
2024-03-10T19:32:50.878Z,11.10
2024-03-10T19:35:20.653Z,11.12
2024-03-10T19:37:49.487Z,11.22
2024-03-10T19:40:20.662Z,11.27
2024-03-10T19:42:50.027Z,11.28
2024-03-10T19:45:20.956Z,11.39
2024-03-10T19:47:49.486Z,11.40
2024-03-10T19:50:17.981Z,11.46
2024-03-10T19:52:49.393Z,11.48
2024-03-10T19:55:17.609Z,11.42
2024-03-10T19:57:45.908Z,11.39
2024-03-10T20:00:15.940Z,11.36
2024-03-10T20:02:45.444Z,11.35
2024-03-10T20:05:16.931Z,11.43
2024-03-10T20:07:49.605Z,11.47
2024-03-10T20:10:21.142Z,11.44
2024-03-10T20:12:53.011Z,11.40
2024-03-10T20:15:21.269Z,11.36
2024-03-10T20:17:50.919Z,11.30
2024-03-10T20:20:26.590Z,11.34
2024-03-10T20:23:01.898Z,11.25
2024-03-10T20:25:32.089Z,11.24
2024-03-10T20:28:00.802Z,11.28
2024-03-10T20:30:32.255Z,11.40
2024-03-10T20:33:00.608Z,11.54
2024-03-10T20:35:29.002Z,11.65
2024-03-10T20:37:57.139Z,11.66
2024-03-10T20:40:25.306Z,11.71
2024-03-10T20:42:53.361Z,11.78
2024-03-10T20:45:21.575Z,11.82
2024-03-10T20:47:50.593Z,11.81
2024-03-10T20:50:24.520Z,11.83
2024-03-10T20:52:53.982Z,11.88
2024-03-10T20:55:22.751Z,11.96
2024-03-10T20:57:51.119Z,12.04
2024-03-10T21:00:23.782Z,12.07
2024-03-10T21:02:52.733Z,12.15
2024-03-10T21:05:22.795Z,12.20
2024-03-10T21:07:53.408Z,12.26
2024-03-10T21:10:23.450Z,12.19
2024-03-10T21:12:52.517Z,12.13
2024-03-10T21:15:23.808Z,11.96
2024-03-10T21:17:53.535Z,11.81
2024-03-10T21:20:24.184Z,11.80
2024-03-10T21:22:53.418Z,11.75
2024-03-10T21:25:24.251Z,11.73
2024-03-10T21:27:52.394Z,11.70
2024-03-10T21:30:20.600Z,11.56
2024-03-10T21:32:49.026Z,11.43
2024-03-10T21:35:19.335Z,11.19
2024-03-10T21:37:48.883Z,11.09
2024-03-10T21:40:17.757Z,11.05
2024-03-10T21:42:46.000Z,11.09
2024-03-10T21:45:14.352Z,11.07
2024-03-10T21:47:42.952Z,11.03
2024-03-10T21:50:11.897Z,11.04
2024-03-10T21:52:40.410Z,11.10
2024-03-10T21:55:08.931Z,11.08
2024-03-10T21:57:37.121Z,11.04
2024-03-10T22:00:15.708Z,11.05
2024-03-10T22:02:45.005Z,11.02
2024-03-10T22:05:13.655Z,11.00
2024-03-10T22:07:43.031Z,10.98
2024-03-10T22:10:11.394Z,10.97
2024-03-10T22:12:39.575Z,10.96
2024-03-10T22:15:15.608Z,10.95
2024-03-10T22:17:45.011Z,10.98
2024-03-10T22:20:15.426Z,10.96
2024-03-10T22:22:44.562Z,11.04
2024-03-10T22:25:15.296Z,11.13
2024-03-10T22:27:44.717Z,11.20
2024-03-10T22:30:16.397Z,11.23
2024-03-10T22:32:48.549Z,11.27
2024-03-10T22:35:17.185Z,11.27
2024-03-10T22:37:49.488Z,11.28
2024-03-10T22:40:20.242Z,11.35
2024-03-10T22:42:50.674Z,11.41
2024-03-10T22:45:29.180Z,11.36
2024-03-10T22:48:00.900Z,11.29
2024-03-10T22:50:30.170Z,11.22
2024-03-10T22:53:01.774Z,11.12
2024-03-10T22:55:30.493Z,10.95
2024-03-10T22:57:58.772Z,10.90
2024-03-10T23:00:26.977Z,10.85
2024-03-10T23:02:56.906Z,10.86
2024-03-10T23:05:26.999Z,10.82
2024-03-10T23:08:05.610Z,10.66
2024-03-10T23:10:36.077Z,10.48
2024-03-10T23:13:05.381Z,10.29
2024-03-10T23:15:34.446Z,10.14
2024-03-10T23:18:02.822Z,10.10
2024-03-10T23:20:31.735Z,10.03
2024-03-10T23:23:01.385Z,10.05
2024-03-10T23:25:31.565Z,10.04
2024-03-10T23:27:59.980Z,10.03
2024-03-10T23:30:28.283Z,10.10
2024-03-10T23:32:57.147Z,10.16
2024-03-10T23:35:26.933Z,10.23
2024-03-10T23:37:55.239Z,10.11
2024-03-10T23:40:26.331Z,10.10
2024-03-10T23:42:56.699Z,10.06
2024-03-10T23:45:24.995Z,10.04
2024-03-10T23:47:53.808Z,10.09
2024-03-10T23:50:22.334Z,10.18
2024-03-10T23:52:53.920Z,10.25
2024-03-10T23:55:23.684Z,10.30
2024-03-10T23:57:54.211Z,10.27
